createdAt,value
2023-01-18T00:01:54.458Z,3.10
2023-01-18T00:04:39.788Z,3.60
2023-01-18T00:07:25.455Z,3.50
2023-01-18T00:10:11.031Z,3.42
2023-01-18T00:12:59.043Z,3.20
2023-01-18T00:15:44.806Z,3.10
2023-01-18T00:18:31.048Z,3.33
2023-01-18T00:21:17.096Z,3.13
2023-01-18T00:24:02.757Z,3.10
2023-01-18T00:26:48.615Z,3.37
2023-01-18T00:29:34.200Z,3.20
2023-01-18T00:32:19.197Z,3.50
2023-01-18T00:35:07.456Z,3.70
2023-01-18T00:37:53.855Z,3.30
2023-01-18T00:40:39.123Z,3.50
2023-01-18T00:43:40.216Z,3.70
2023-01-18T00:46:30.080Z,3.47
2023-01-18T00:49:15.357Z,3.25
2023-01-18T00:52:00.372Z,3.10
2023-01-18T00:54:45.645Z,3.23
2023-01-18T00:57:31.151Z,3.28
2023-01-18T01:00:16.676Z,3.58
2023-01-18T01:03:02.491Z,3.83
2023-01-18T01:06:06.347Z,3.28
2023-01-18T01:08:51.487Z,3.43
2023-01-18T01:11:36.908Z,2.97
2023-01-18T01:14:40.693Z,3.20
2023-01-18T01:17:46.319Z,3.05
2023-01-18T01:20:50.364Z,3.03
2023-01-18T01:23:54.412Z,2.97
2023-01-18T01:26:40.343Z,2.78
2023-01-18T01:29:25.644Z,3.28
2023-01-18T01:32:11.822Z,3.13
2023-01-18T01:34:56.892Z,3.00
2023-01-18T01:37:42.479Z,2.93
2023-01-18T01:40:27.672Z,3.17
2023-01-18T01:43:13.612Z,2.80
2023-01-18T01:45:59.024Z,2.95
2023-01-18T01:48:44.584Z,2.92
2023-01-18T01:51:31.201Z,3.00
2023-01-18T01:54:21.973Z,2.70
2023-01-18T01:57:14.367Z,2.97
2023-01-18T02:00:02.215Z,2.90
2023-01-18T02:03:04.817Z,3.13
2023-01-18T02:05:55.400Z,2.80
2023-01-18T02:08:40.515Z,2.90
2023-01-18T02:11:26.166Z,2.90
2023-01-18T02:14:15.966Z,2.88
2023-01-18T02:17:33.772Z,2.70
2023-01-18T02:20:43.578Z,2.80
2023-01-18T02:24:01.860Z,2.65
2023-01-18T02:26:56.737Z,2.80
2023-01-18T02:30:06.379Z,2.95
2023-01-18T02:32:55.459Z,2.78
2023-01-18T02:35:44.280Z,2.60
2023-01-18T02:38:41.352Z,2.97
2023-01-18T02:41:54.736Z,2.30
2023-01-18T02:45:05.144Z,2.58
2023-01-18T02:47:51.655Z,2.97
2023-01-18T02:50:37.339Z,2.40
2023-01-18T02:53:22.322Z,2.92
2023-01-18T02:56:40.631Z,2.53
2023-01-18T02:59:33.310Z,2.80
2023-01-18T03:02:23.067Z,2.70
2023-01-18T03:05:10.557Z,2.50
2023-01-18T03:08:11.049Z,2.50
2023-01-18T03:11:03.133Z,2.50
2023-01-18T03:14:07.861Z,2.80
2023-01-18T03:17:17.609Z,2.47
2023-01-18T03:20:09.597Z,3.07
2023-01-18T03:23:20.608Z,2.47
2023-01-18T03:26:16.459Z,2.40
2023-01-18T03:29:21.667Z,2.88
2023-01-18T03:32:35.823Z,2.50
2023-01-18T03:35:26.897Z,2.20
2023-01-18T03:38:12.866Z,2.22
2023-01-18T03:41:00.439Z,2.30
2023-01-18T03:43:48.441Z,2.30
2023-01-18T03:46:34.593Z,2.10
2023-01-18T03:49:20.123Z,2.30
2023-01-18T03:52:16.737Z,2.33
2023-01-18T03:55:20.435Z,2.38
2023-01-18T03:58:10.644Z,2.30
2023-01-18T04:00:56.667Z,2.58
2023-01-18T04:03:41.973Z,2.43
2023-01-18T04:06:27.843Z,2.15
2023-01-18T04:09:13.514Z,2.17
2023-01-18T04:11:58.881Z,2.30
2023-01-18T04:14:44.240Z,2.28
2023-01-18T04:17:29.461Z,2.50
2023-01-18T04:20:14.643Z,2.50
2023-01-18T04:23:00.193Z,2.38
2023-01-18T04:25:49.905Z,2.47
2023-01-18T04:28:35.103Z,2.30
2023-01-18T04:31:20.471Z,2.53
2023-01-18T04:34:05.774Z,2.20
2023-01-18T04:36:51.928Z,2.10
2023-01-18T04:39:36.946Z,2.30
2023-01-18T04:42:22.105Z,2.40
2023-01-18T04:45:08.328Z,2.03
2023-01-18T04:47:53.218Z,2.05
2023-01-18T04:50:39.475Z,2.30
2023-01-18T04:53:24.769Z,2.10
2023-01-18T04:56:11.134Z,2.05
2023-01-18T04:58:56.470Z,1.90
2023-01-18T05:01:41.979Z,2.25
2023-01-18T05:04:27.185Z,2.15
2023-01-18T05:07:12.467Z,2.13
2023-01-18T05:09:58.014Z,2.00
2023-01-18T05:12:43.790Z,2.30
2023-01-18T05:15:29.353Z,2.38
2023-01-18T05:18:14.916Z,1.95
2023-01-18T05:21:00.666Z,2.00
2023-01-18T05:23:46.337Z,2.10
2023-01-18T05:26:31.581Z,1.97
2023-01-18T05:29:17.842Z,1.90
2023-01-18T05:32:03.192Z,2.20
2023-01-18T05:34:48.477Z,1.80
2023-01-18T05:37:33.653Z,2.35
2023-01-18T05:40:20.652Z,2.10
2023-01-18T05:43:05.873Z,2.55
2023-01-18T05:45:51.725Z,2.00
2023-01-18T05:48:36.880Z,2.13
2023-01-18T05:51:22.103Z,2.20
2023-01-18T05:54:07.729Z,2.17
2023-01-18T05:56:53.217Z,1.95
2023-01-18T05:59:38.486Z,2.17
2023-01-18T06:02:24.905Z,2.05
2023-01-18T06:05:11.859Z,2.42
2023-01-18T06:07:57.255Z,2.40
2023-01-18T06:10:42.173Z,2.10
2023-01-18T06:13:30.532Z,2.30
2023-01-18T06:16:16.147Z,2.10
2023-01-18T06:19:01.311Z,1.90
2023-01-18T06:21:47.610Z,1.97
2023-01-18T06:24:33.257Z,2.00
2023-01-18T06:27:18.310Z,2.00
2023-01-18T06:30:06.214Z,1.90
2023-01-18T06:32:51.483Z,2.03
2023-01-18T06:35:37.056Z,1.80
2023-01-18T06:38:22.090Z,1.83
2023-01-18T06:41:08.284Z,1.90
2023-01-18T06:43:53.254Z,2.00
2023-01-18T06:46:38.252Z,2.17
2023-01-18T06:49:23.555Z,1.80
2023-01-18T06:52:08.829Z,2.10
2023-01-18T06:54:53.924Z,1.92
2023-01-18T06:57:39.342Z,2.10
2023-01-18T07:00:24.851Z,2.00
2023-01-18T07:03:10.970Z,1.87
2023-01-18T07:06:01.355Z,1.80
2023-01-18T07:08:47.922Z,1.90
2023-01-18T07:11:32.960Z,1.90
2023-01-18T07:14:18.407Z,2.10
2023-01-18T07:17:04.698Z,1.90
2023-01-18T07:19:49.946Z,2.08
2023-01-18T07:22:34.860Z,2.00
2023-01-18T07:25:20.687Z,2.05
2023-01-18T07:28:05.737Z,1.90
2023-01-18T07:30:50.826Z,1.83
2023-01-18T07:33:36.677Z,2.00
2023-01-18T07:36:22.849Z,1.80
2023-01-18T07:39:09.431Z,1.77
2023-01-18T07:41:54.756Z,2.00
2023-01-18T07:44:41.995Z,3.30
2023-01-18T07:47:27.032Z,2.95
2023-01-18T07:50:14.266Z,2.40
2023-01-18T07:53:06.707Z,2.45
2023-01-18T07:55:52.665Z,2.22
2023-01-18T07:58:38.076Z,2.30
2023-01-18T08:01:24.092Z,2.40
2023-01-18T08:04:09.805Z,2.58
2023-01-18T08:06:57.747Z,2.40
2023-01-18T08:09:43.999Z,2.33
2023-01-18T08:12:29.429Z,2.20
2023-01-18T08:15:14.895Z,2.03
2023-01-18T08:18:09.956Z,1.95
2023-01-18T08:20:55.699Z,2.10
2023-01-18T08:31:53.307Z,2.00
2023-01-18T08:34:38.806Z,2.17
2023-01-18T08:37:24.035Z,2.13
2023-01-18T08:40:10.058Z,1.80
2023-01-18T08:43:00.496Z,2.07
2023-01-18T08:45:50.488Z,1.70
2023-01-18T08:48:35.439Z,1.90
2023-01-18T08:51:22.844Z,1.90
2023-01-18T08:54:08.401Z,1.83
2023-01-18T08:56:54.270Z,1.57
2023-01-18T08:59:39.723Z,1.77
2023-01-18T09:02:25.913Z,2.00
2023-01-18T09:05:11.408Z,1.83
2023-01-18T09:07:57.769Z,1.67
2023-01-18T09:10:43.546Z,2.00
2023-01-18T09:13:28.616Z,1.60
2023-01-18T09:16:14.307Z,1.77
2023-01-18T09:18:59.852Z,1.75
2023-01-18T09:21:46.587Z,1.90
2023-01-18T09:24:32.270Z,1.50
2023-01-18T09:27:17.492Z,1.98
2023-01-18T09:30:02.515Z,1.60
2023-01-18T09:32:47.739Z,1.42
2023-01-18T09:35:33.652Z,1.60
2023-01-18T09:38:18.998Z,1.60
2023-01-18T09:41:22.236Z,1.48
2023-01-18T09:44:29.761Z,1.80
2023-01-18T09:47:23.508Z,1.73
2023-01-18T09:50:17.808Z,1.65
2023-01-18T09:53:17.929Z,1.83
2023-01-18T09:56:12.128Z,1.90
2023-01-18T09:59:21.019Z,1.90
2023-01-18T10:02:25.890Z,1.60
2023-01-18T10:05:16.275Z,1.63
2023-01-18T10:08:16.612Z,1.40
2023-01-18T10:11:16.956Z,1.60
2023-01-18T10:14:08.922Z,1.65
2023-01-18T10:17:03.023Z,1.30
2023-01-18T10:19:49.472Z,1.60
2023-01-18T10:22:50.470Z,1.43
2023-01-18T10:25:54.339Z,1.55
2023-01-18T10:28:45.176Z,1.60
2023-01-18T10:31:42.900Z,1.50
2023-01-18T10:34:34.582Z,1.70
2023-01-18T10:37:45.143Z,1.77
2023-01-18T10:40:30.237Z,1.60
2023-01-18T10:43:20.397Z,1.52
2023-01-18T10:46:19.357Z,1.50
2023-01-18T10:49:04.451Z,1.30
2023-01-18T10:51:49.776Z,1.30
2023-01-18T10:54:34.951Z,1.30
2023-01-18T10:57:25.468Z,1.40
2023-01-18T11:00:34.684Z,1.58
2023-01-18T11:03:20.140Z,1.50
2023-01-18T11:06:07.077Z,1.33
2023-01-18T11:08:53.191Z,1.42
2023-01-18T11:12:28.833Z,1.42
2023-01-18T11:15:14.307Z,1.27
2023-01-18T11:18:03.004Z,1.30
2023-01-18T11:53:37.006Z,1.43
2023-01-18T11:56:42.766Z,1.30
2023-01-18T11:59:32.064Z,1.25
2023-01-18T12:02:56.619Z,1.35
2023-01-18T12:06:05.549Z,1.20
2023-01-18T12:09:04.047Z,1.10
2023-01-18T12:12:19.252Z,1.13
2023-01-18T12:15:42.411Z,1.08
2023-01-18T12:19:05.949Z,1.50
2023-01-18T12:22:39.212Z,1.30
2023-01-18T12:25:57.657Z,1.37
2023-01-18T12:29:06.875Z,1.20
2023-01-18T12:31:55.345Z,1.10
2023-01-18T12:34:58.974Z,1.00
2023-01-18T12:38:02.601Z,1.13
2023-01-18T12:40:58.359Z,1.03
2023-01-18T12:43:57.934Z,1.20
2023-01-18T12:46:47.864Z,0.93
2023-01-18T12:49:40.302Z,1.35
2023-01-18T12:52:28.057Z,1.00
2023-01-18T12:55:21.062Z,0.93
2023-01-18T12:58:09.923Z,1.20
2023-01-18T13:01:00.537Z,1.00
2023-01-18T13:03:49.508Z,1.10
2023-01-18T13:06:38.410Z,1.30
2023-01-18T13:09:33.094Z,1.10
2023-01-18T13:12:18.322Z,1.27
2023-01-18T13:15:22.925Z,1.10
2023-01-18T13:19:04.030Z,1.02
2023-01-18T13:22:06.180Z,0.98
2023-01-18T13:25:13.167Z,1.20
2023-01-18T13:28:02.397Z,1.17
2023-01-18T13:30:56.555Z,1.10
2023-01-18T13:33:47.279Z,1.10
2023-01-18T13:36:50.477Z,2.40
2023-01-18T13:39:46.425Z,2.30
2023-01-18T13:42:38.142Z,2.05
2023-01-18T13:45:26.224Z,1.92
2023-01-18T13:48:50.923Z,2.30
2023-01-18T13:51:42.876Z,2.30
2023-01-18T13:54:28.596Z,2.60
2023-01-18T13:57:17.525Z,2.10
2023-01-18T14:00:04.387Z,1.70
2023-01-18T14:02:56.592Z,1.67
2023-01-18T14:05:48.659Z,1.60
2023-01-18T14:08:34.373Z,1.60
2023-01-18T14:11:29.261Z,1.48
2023-01-18T14:14:16.057Z,1.80
2023-01-18T14:17:16.728Z,1.70
2023-01-18T14:20:36.071Z,1.55
2023-01-18T14:23:30.912Z,1.53
2023-01-18T14:26:19.666Z,1.60
2023-01-18T14:29:34.059Z,1.77
2023-01-18T14:32:26.093Z,1.63
2023-01-18T14:35:25.796Z,1.60
2023-01-18T14:38:19.070Z,1.63
2023-01-18T14:41:07.904Z,1.60
2023-01-18T14:43:53.502Z,1.30
2023-01-18T14:46:38.883Z,1.40
2023-01-18T14:49:25.818Z,1.38
2023-01-18T14:52:15.102Z,1.40
2023-01-18T14:55:00.584Z,1.52
2023-01-18T14:57:51.336Z,1.30
2023-01-18T15:01:03.749Z,1.60
2023-01-18T15:03:54.846Z,1.40
2023-01-18T15:06:50.319Z,1.50
2023-01-18T15:09:38.562Z,1.30
2023-01-18T15:12:31.032Z,1.10
2023-01-18T15:15:25.530Z,1.48
2023-01-18T15:18:19.258Z,1.20
2023-01-18T15:21:11.945Z,1.30
2023-01-18T15:24:01.739Z,1.17
2023-01-18T15:26:52.855Z,1.65
2023-01-18T15:29:41.131Z,1.67
2023-01-18T15:32:30.094Z,1.30
2023-01-18T15:35:16.133Z,1.60
2023-01-18T15:38:04.917Z,1.30
2023-01-18T15:41:01.265Z,1.20
2023-01-18T15:43:47.853Z,1.30
2023-01-18T15:46:38.222Z,1.40
2023-01-18T15:49:23.461Z,1.40
2023-01-18T15:52:08.869Z,1.30
2023-01-18T15:54:54.352Z,1.30
2023-01-18T15:57:40.506Z,1.45
2023-01-18T16:00:53.768Z,1.50
2023-01-18T16:03:48.032Z,1.40
2023-01-18T16:06:37.107Z,1.45
2023-01-18T16:09:23.071Z,1.67
2023-01-18T16:12:08.103Z,1.40
2023-01-18T16:14:53.334Z,1.27
2023-01-18T16:17:38.800Z,1.57
2023-01-18T16:20:24.289Z,1.30
2023-01-18T16:23:17.796Z,1.50
2023-01-18T16:26:04.849Z,1.20
2023-01-18T16:28:51.636Z,1.70
2023-01-18T16:31:41.412Z,1.67
2023-01-18T16:34:27.005Z,1.60
2023-01-18T16:37:12.292Z,1.50
2023-01-18T16:39:57.682Z,2.05
2023-01-18T16:43:03.566Z,1.50
2023-01-18T16:45:51.380Z,1.47
2023-01-18T16:48:37.680Z,1.65
2023-01-18T16:51:25.920Z,1.52
2023-01-18T16:54:12.089Z,1.70
2023-01-18T16:56:57.922Z,1.40
2023-01-18T16:59:44.161Z,1.20
2023-01-18T17:02:29.488Z,1.40
2023-01-18T17:05:16.170Z,1.38
2023-01-18T17:08:02.091Z,1.50
2023-01-18T17:10:49.450Z,1.65
2023-01-18T17:13:34.474Z,1.40
2023-01-18T17:16:20.047Z,1.30
2023-01-18T17:19:10.225Z,1.40
2023-01-18T17:21:55.809Z,1.55
2023-01-18T17:24:41.107Z,1.70
2023-01-18T17:27:26.108Z,1.27
2023-01-18T17:30:14.355Z,1.60
2023-01-18T17:33:00.883Z,1.30
2023-01-18T17:35:48.453Z,1.92
2023-01-18T17:38:34.316Z,1.63
2023-01-18T17:41:27.765Z,1.80
2023-01-18T17:44:14.472Z,1.95
2023-01-18T17:46:59.838Z,3.25
2023-01-18T17:49:45.694Z,5.80
2023-01-18T17:52:30.861Z,6.25
2023-01-18T17:55:17.857Z,4.60
2023-01-18T17:58:04.981Z,4.72
2023-01-18T18:00:50.427Z,4.32
2023-01-18T18:03:40.631Z,3.65
2023-01-18T18:06:31.558Z,3.88
2023-01-18T18:09:20.503Z,3.60
2023-01-18T18:12:09.152Z,3.50
2023-01-18T18:14:55.831Z,3.60
2023-01-18T18:17:41.119Z,3.28
2023-01-18T18:20:26.357Z,3.03
2023-01-18T18:23:12.056Z,2.67
2023-01-18T18:25:58.268Z,3.00
2023-01-18T18:28:43.530Z,2.63
2023-01-18T18:31:29.106Z,2.58
2023-01-18T18:34:14.997Z,2.22
2023-01-18T18:37:01.055Z,2.37
2023-01-18T18:39:46.812Z,2.67
2023-01-18T18:42:31.940Z,2.65
2023-01-18T18:45:17.171Z,2.22
2023-01-18T18:48:02.505Z,2.25
2023-01-18T18:50:47.937Z,2.50
2023-01-18T18:53:38.560Z,2.28
2023-01-18T18:56:24.620Z,2.38
2023-01-18T18:59:09.636Z,2.45
2023-01-18T19:01:55.775Z,2.40
2023-01-18T19:04:41.077Z,2.40
2023-01-18T19:07:26.415Z,2.42
2023-01-18T19:10:14.389Z,2.08
2023-01-18T19:13:02.200Z,2.40
2023-01-18T19:15:49.371Z,2.17
2023-01-18T19:18:35.620Z,2.27
2023-01-18T19:21:20.692Z,2.50
2023-01-18T19:24:05.886Z,2.60
2023-01-18T19:26:51.155Z,2.80
2023-01-18T19:29:38.205Z,3.65
2023-01-18T19:32:24.302Z,3.73
2023-01-18T19:35:10.120Z,4.63
2023-01-18T19:37:55.660Z,5.05
2023-01-18T19:40:41.619Z,5.78
2023-01-18T19:43:27.714Z,12.55
2023-01-18T19:46:15.550Z,14.73
2023-01-18T19:49:03.250Z,13.20
2023-01-18T19:51:49.416Z,12.10
2023-01-18T19:54:34.561Z,12.65
2023-01-18T19:57:20.033Z,12.90
2023-01-18T20:00:09.914Z,13.60
2023-01-18T20:02:59.981Z,13.80
2023-01-18T20:05:45.773Z,14.13
2023-01-18T20:08:31.024Z,13.27
2023-01-18T20:11:16.778Z,14.90
2023-01-18T20:14:02.205Z,14.17
2023-01-18T20:16:47.846Z,13.48
2023-01-18T20:19:33.185Z,13.23
2023-01-18T20:22:18.630Z,14.27
2023-01-18T20:25:04.432Z,14.20
2023-01-18T20:27:49.534Z,14.23
2023-01-18T20:30:34.545Z,14.45
2023-01-18T20:33:19.809Z,14.43
2023-01-18T20:36:08.104Z,13.50
2023-01-18T20:38:53.828Z,13.85
2023-01-18T20:41:39.390Z,14.20
2023-01-18T20:44:24.797Z,13.57
2023-01-18T20:47:10.094Z,13.35
2023-01-18T20:49:55.399Z,13.02
2023-01-18T20:52:40.682Z,13.20
2023-01-18T20:55:26.264Z,14.37
2023-01-18T20:58:11.397Z,16.13
2023-01-18T21:00:56.685Z,15.73
2023-01-18T21:03:47.264Z,14.10
2023-01-18T21:06:33.238Z,13.75
2023-01-18T21:09:18.919Z,13.13
2023-01-18T21:12:04.473Z,13.95
2023-01-18T21:14:49.668Z,14.27
2023-01-18T21:17:35.686Z,14.10
2023-01-18T21:20:20.894Z,14.43
2023-01-18T21:23:06.235Z,14.47
2023-01-18T21:25:57.637Z,15.10
2023-01-18T21:28:42.832Z,15.73
2023-01-18T21:31:28.123Z,15.95
2023-01-18T21:34:13.658Z,14.65
2023-01-18T21:36:58.872Z,15.03
2023-01-18T21:39:44.392Z,14.50
2023-01-18T21:42:48.537Z,14.05
2023-01-18T21:45:52.154Z,14.07
2023-01-18T21:48:37.397Z,13.85
2023-01-18T21:51:41.371Z,13.13
2023-01-18T21:54:26.614Z,14.00
2023-01-18T21:57:12.344Z,13.40
2023-01-18T21:59:57.905Z,13.18
2023-01-18T22:02:43.167Z,12.90
2023-01-18T22:05:28.472Z,12.80
2023-01-18T22:08:13.979Z,12.70
2023-01-18T22:11:00.400Z,12.13
2023-01-18T22:13:45.913Z,12.45
2023-01-18T22:16:31.910Z,11.40
2023-01-18T22:19:19.039Z,10.70
2023-01-18T22:22:04.255Z,11.45
2023-01-18T22:24:49.560Z,10.88
2023-01-18T22:27:34.853Z,10.73
2023-01-18T22:30:21.050Z,10.82
2023-01-18T22:33:06.539Z,10.13
2023-01-18T22:35:57.439Z,10.18
2023-01-18T22:38:42.777Z,10.25
2023-01-18T22:41:29.463Z,9.75
2023-01-18T22:44:17.209Z,9.70
2023-01-18T22:47:02.213Z,9.17
2023-01-18T22:49:48.265Z,8.98
2023-01-18T22:52:33.678Z,9.00
2023-01-18T22:55:18.899Z,8.63
2023-01-18T22:58:04.456Z,8.70
2023-01-18T23:00:49.810Z,8.93
2023-01-18T23:03:35.034Z,8.90
2023-01-18T23:06:20.641Z,8.90
2023-01-18T23:09:06.297Z,8.70
2023-01-18T23:11:51.700Z,9.15
2023-01-18T23:14:55.723Z,8.40
2023-01-18T23:17:42.256Z,8.48
2023-01-18T23:20:27.706Z,8.00
2023-01-18T23:23:12.923Z,7.75
2023-01-18T23:25:59.914Z,7.55
2023-01-18T23:28:45.343Z,7.17
2023-01-18T23:31:30.593Z,7.25
2023-01-18T23:34:16.228Z,7.38
2023-01-18T23:37:01.432Z,7.25
2023-01-18T23:40:05.325Z,7.40
2023-01-18T23:43:12.347Z,7.70
